Time;durP1;ratioP1;P1;durP2;ratioP2;P2;SDS_P1;SDS_P2;PMS_P1;PMS_P2;Temp;Humidity;BMP_temperature;BMP_pressure;BME280_temperature;BME280_humidity;BME280_pressure;Samples;Min_cycle;Max_cycle;Signal;HPM_P1;HPM_P2
2023/04/28 00:03:11;;;;;;;6.15;3.08;;;;;;;8.80;45.16;100385.09;10197552;29;20051;-78
2023/04/28 00:08:15;;;;;;;12.10;3.85;;;;;;;8.81;45.19;100370.72;10229090;29;20062;-77
2023/04/28 00:13:17;;;;;;;4.85;3.28;;;;;;;8.81;45.06;100369.84;10221833;29;20048;-76
2023/04/28 00:18:22;;;;;;;9.00;3.40;;;;;;;8.76;45.21;100362.16;10224153;29;20517;-79
2023/04/28 00:23:25;;;;;;;7.75;3.25;;;;;;;8.81;45.28;100351.97;10210596;29;20096;-81
2023/04/28 00:28:28;;;;;;;6.00;3.13;;;;;;;8.76;45.59;100339.88;10204461;29;20052;-80
2023/04/28 00:33:35;;;;;;;5.68;3.30;;;;;;;8.72;45.74;100331.22;10208242;29;20039;-77
2023/04/28 00:38:38;;;;;;;7.90;3.55;;;;;;;8.76;45.99;100319.31;10192157;29;20051;-77
2023/04/28 00:43:45;;;;;;;8.43;3.97;;;;;;;8.69;45.94;100325.22;10205457;29;20044;-77
2023/04/28 00:48:49;;;;;;;8.00;3.50;;;;;;;8.76;45.94;100326.50;10225935;29;20062;-76
2023/04/28 00:53:52;;;;;;;9.48;4.00;;;;;;;8.79;46.12;100308.34;10222611;29;20048;-74
2023/04/28 00:58:55;;;;;;;5.70;4.47;;;;;;;8.78;46.20;100298.63;10210766;29;20047;-78
2023/04/28 01:04:00;;;;;;;5.80;3.85;;;;;;;8.71;46.22;100300.03;10209538;29;20050;-78
2023/04/28 01:09:05;;;;;;;6.65;4.28;;;;;;;8.72;46.53;100306.25;10202620;29;20040;-79
2023/04/28 01:14:08;;;;;;;11.10;5.13;;;;;;;8.84;46.40;100302.66;10219438;29;20043;-78
2023/04/28 01:19:21;;;;;;;9.85;4.20;;;;;;;8.83;46.54;100290.22;10197553;29;20518;-79
2023/04/28 01:24:26;;;;;;;5.75;3.67;;;;;;;8.80;46.78;100287.78;10197918;29;20043;-78
2023/04/28 01:29:33;;;;;;;11.60;5.68;;;;;;;8.76;46.92;100281.81;10203024;29;20102;-77
2023/04/28 01:34:35;;;;;;;8.05;4.50;;;;;;;8.83;47.16;100268.78;10204095;29;20040;-79
2023/04/28 01:39:42;;;;;;;10.70;4.18;;;;;;;8.73;47.12;100260.63;10200067;29;20056;-77
2023/04/28 01:44:45;;;;;;;7.50;4.63;;;;;;;8.71;47.49;100251.84;10208643;29;20047;-77
2023/04/28 01:49:48;;;;;;;9.80;5.80;;;;;;;8.72;47.71;100247.31;10211938;29;20388;-80
2023/04/28 01:54:53;;;;;;;10.45;5.70;;;;;;;8.66;47.69;100254.00;10206107;29;20066;-79
2023/04/28 01:59:58;;;;;;;8.63;5.18;;;;;;;8.73;47.88;100236.50;10198213;29;20052;-80
2023/04/28 02:05:03;;;;;;;10.15;5.72;;;;;;;8.75;47.94;100231.91;10219150;29;20103;-77
2023/04/28 02:10:08;;;;;;;9.48;5.35;;;;;;;8.70;48.29;100228.72;10244614;28;20046;-80
2023/04/28 02:15:12;;;;;;;12.63;5.38;;;;;;;8.69;48.19;100228.81;10211104;29;20537;-77
2023/04/28 02:20:15;;;;;;;11.88;5.90;;;;;;;8.65;48.39;100222.84;10217054;29;20095;-77
2023/04/28 02:25:19;;;;;;;15.52;6.50;;;;;;;8.72;48.50;100217.88;10194451;29;20099;-78
2023/04/28 02:30:22;;;;;;;11.30;6.35;;;;;;;8.75;48.67;100204.25;10209275;29;20099;-78
2023/04/28 02:35:25;;;;;;;15.05;6.32;;;;;;;8.72;48.72;100201.81;10194280;29;20099;-79
2023/04/28 02:40:29;;;;;;;9.00;6.47;;;;;;;8.71;49.03;100203.63;10203953;29;20069;-79
2023/04/28 02:45:32;;;;;;;15.07;6.40;;;;;;;8.75;49.16;100196.22;10203767;29;20139;-78
2023/04/28 02:50:35;;;;;;;9.68;6.80;;;;;;;8.76;49.10;100184.53;10204679;29;20040;-79
2023/04/28 02:55:39;;;;;;;11.50;6.95;;;;;;;8.72;49.13;100186.63;10206489;29;20415;-77
2023/04/28 03:00:42;;;;;;;12.25;6.35;;;;;;;8.71;49.32;100184.03;10206254;29;20043;-78
2023/04/28 03:05:45;;;;;;;12.40;6.95;;;;;;;8.72;49.65;100173.22;10204933;29;20123;-79
2023/04/28 03:10:49;;;;;;;11.02;6.97;;;;;;;8.63;49.68;100171.22;10203291;29;20060;-75
2023/04/28 03:15:52;;;;;;;12.18;7.15;;;;;;;8.67;49.94;100166.50;10217794;29;20077;-75
2023/04/28 03:20:55;;;;;;;10.75;7.03;;;;;;;8.68;50.25;100153.00;10238794;28;20048;-77
2023/04/28 03:26:02;;;;;;;14.25;7.28;;;;;;;8.73;50.19;100160.69;10196628;29;20107;-78
2023/04/28 03:31:06;;;;;;;13.95;8.32;;;;;;;8.74;50.45;100160.53;10193986;29;20056;-78
2023/04/28 03:36:09;;;;;;;20.17;8.15;;;;;;;8.74;50.30;100154.34;10192805;29;20059;-77
2023/04/28 03:41:13;;;;;;;13.63;7.18;;;;;;;8.74;50.40;100155.19;10216762;29;20040;-79
2023/04/28 03:46:42;;;;;;;13.32;7.65;;;;;;;8.74;50.26;100146.31;10202572;29;20115;-79
2023/04/28 03:51:45;;;;;;;13.45;7.95;;;;;;;8.71;50.72;100133.16;10185354;29;20058;-75
2023/04/28 03:56:51;;;;;;;14.30;8.38;;;;;;;8.70;50.73;100139.50;10188468;29;20040;-77
2023/04/28 04:01:54;;;;;;;17.23;7.15;;;;;;;8.73;51.05;100137.44;10183686;29;20127;-78
2023/04/28 04:06:56;;;;;;;15.75;8.43;;;;;;;8.72;51.32;100135.72;10180283;29;20048;-79
2023/04/28 04:12:01;;;;;;;12.85;8.20;;;;;;;8.70;51.15;100140.34;10181043;29;20055;-79
2023/04/28 04:17:04;;;;;;;13.55;7.80;;;;;;;8.72;51.07;100129.50;10188478;29;20056;-79
2023/04/28 04:22:07;;;;;;;12.10;7.22;;;;;;;8.71;50.71;100125.13;10205600;29;20036;-74
2023/04/28 04:27:11;;;;;;;15.27;8.27;;;;;;;8.59;50.92;100121.56;10207782;29;20051;-77
2023/04/28 04:32:16;;;;;;;17.65;8.75;;;;;;;8.64;51.08;100119.41;10195643;29;20054;-78
2023/04/28 04:37:19;;;;;;;20.60;9.07;;;;;;;8.70;50.81;100110.03;10188276;29;20056;-79
2023/04/28 04:42:36;;;;;;;14.68;8.25;;;;;;;8.75;50.88;100111.38;10182986;29;20522;-77
2023/04/28 04:47:53;;;;;;;15.00;8.90;;;;;;;8.71;51.10;100107.22;10222212;29;20036;-77
2023/04/28 04:52:57;;;;;;;16.27;8.93;;;;;;;8.72;51.11;100102.72;10199087;29;20063;-78
2023/04/28 04:58:02;;;;;;;19.20;9.38;;;;;;;8.75;51.20;100103.34;10182495;29;20146;-76
2023/04/28 05:03:24;;;;;;;12.02;7.57;;;;;;;8.74;51.30;100098.94;10207151;29;20052;-77
2023/04/28 05:08:27;;;;;;;10.57;7.90;;;;;;;8.90;51.45;100092.41;10190599;29;20121;-77
2023/04/28 05:13:33;;;;;;;15.80;9.35;;;;;;;8.87;51.25;100082.78;10180287;29;20062;-77
2023/04/28 05:18:38;;;;;;;15.02;9.65;;;;;;;9.03;51.11;100075.25;10194209;29;20050;-77
2023/04/28 05:23:41;;;;;;;19.90;10.48;;;;;;;9.03;51.38;100077.06;10179459;29;20079;-77
2023/04/28 05:28:45;;;;;;;16.27;9.30;;;;;;;9.04;51.12;100082.28;10189303;29;20535;-77
2023/04/28 05:33:49;;;;;;;19.10;8.57;;;;;;;9.18;50.81;100081.19;10192000;29;20055;-77
2023/04/28 05:38:52;;;;;;;16.08;8.23;;;;;;;9.34;50.72;100071.94;10172572;29;20049;-78
2023/04/28 05:43:57;;;;;;;12.90;8.52;;;;;;;9.24;51.13;100074.47;10190295;29;20393;-76
2023/04/28 05:49:00;;;;;;;17.08;8.88;;;;;;;9.38;50.92;100070.69;10181951;29;20136;-76
2023/04/28 05:54:08;;;;;;;16.08;9.38;;;;;;;9.33;51.05;100076.44;10188589;29;20464;-77
2023/04/28 05:59:18;;;;;;;15.48;9.95;;;;;;;9.42;51.14;100056.91;10200813;29;20532;-77
2023/04/28 06:04:21;;;;;;;17.52;8.88;;;;;;;9.45;50.85;100062.03;10183473;29;20059;-77
2023/04/28 06:09:25;;;;;;;19.50;9.32;;;;;;;9.58;50.91;100063.72;10191537;29;20075;-77
2023/04/28 06:14:29;;;;;;;12.85;8.25;;;;;;;9.79;50.44;100056.59;10200840;29;20051;-77
2023/04/28 06:19:32;;;;;;;13.90;8.85;;;;;;;9.91;50.41;100052.06;10207844;29;20063;-77
2023/04/28 06:24:35;;;;;;;16.35;9.48;;;;;;;9.69;51.95;100047.59;10191000;29;20075;-77
2023/04/28 06:29:42;;;;;;;13.90;9.75;;;;;;;9.80;53.36;100058.28;10186388;29;20047;-77
2023/04/28 06:34:45;;;;;;;17.33;9.52;;;;;;;10.09;52.78;100055.00;10188352;29;20075;-77
2023/04/28 06:39:48;;;;;;;22.42;9.93;;;;;;;10.26;52.92;100051.78;10234941;29;20039;-77
2023/04/28 06:44:52;;;;;;;17.75;8.95;;;;;;;10.21;51.59;100051.31;10189792;29;20059;-77
2023/04/28 06:49:55;;;;;;;13.10;9.32;;;;;;;10.25;50.85;100051.91;10176773;29;20070;-77
2023/04/28 06:54:58;;;;;;;18.52;9.88;;;;;;;10.27;50.92;100040.03;10160446;29;20044;-77
2023/04/28 07:00:03;;;;;;;15.98;10.05;;;;;;;10.45;51.23;100034.06;10168593;29;20051;-77
2023/04/28 07:05:07;;;;;;;14.65;9.38;;;;;;;10.42;50.87;100045.06;10160901;28;20051;-78
2023/04/28 07:10:10;;;;;;;15.05;9.68;;;;;;;10.24;51.47;100037.63;10158584;28;20497;-76
2023/04/28 07:15:14;;;;;;;17.95;10.60;;;;;;;10.03;52.11;100026.03;10163799;29;20047;-78
2023/04/28 07:20:18;;;;;;;15.77;10.07;;;;;;;10.29;52.02;100026.50;10158136;29;20518;-77
2023/04/28 07:25:20;;;;;;;18.08;10.75;;;;;;;10.42;52.26;100018.22;10154610;29;20044;-78
2023/04/28 07:30:26;;;;;;;19.67;10.65;;;;;;;10.49;51.97;100009.50;10163921;29;20066;-77
2023/04/28 07:35:30;;;;;;;15.05;10.00;;;;;;;10.62;51.85;100014.69;10168779;28;20044;-77
2023/04/28 07:40:33;;;;;;;20.85;10.90;;;;;;;10.70;51.29;100022.06;10177416;29;20069;-78
2023/04/28 07:45:38;;;;;;;18.33;9.90;;;;;;;10.96;51.50;100017.94;10169688;29;20055;-76
2023/04/28 07:50:42;;;;;;;17.05;10.68;;;;;;;11.13;51.21;100008.38;10168856;29;20066;-77
2023/04/28 07:55:45;;;;;;;14.57;10.20;;;;;;;11.40;52.07;100005.06;10167560;29;20070;-76
2023/04/28 08:00:49;;;;;;;20.02;11.48;;;;;;;11.08;51.92;100005.25;10173377;28;20051;-78
2023/04/28 08:05:52;;;;;;;16.77;10.65;;;;;;;11.48;52.13;99999.00;10172388;29;20055;-76
2023/04/28 08:10:56;;;;;;;15.68;10.93;;;;;;;11.68;51.23;99984.59;10166193;29;20074;-77
2023/04/28 08:16:00;;;;;;;18.77;12.52;;;;;;;11.52;57.94;99988.78;10165458;29;20380;-77
2023/04/28 08:21:03;;;;;;;16.02;12.00;;;;;;;10.94;58.19;99976.94;10174875;29;20574;-78
2023/04/28 08:26:06;;;;;;;18.35;11.88;;;;;;;10.60;59.25;99979.03;10166903;29;20095;-77
2023/04/28 08:31:10;;;;;;;21.20;14.13;;;;;;;11.07;57.95;99973.97;10182222;29;20047;-77
2023/04/28 08:36:13;;;;;;;20.05;11.73;;;;;;;11.51;55.58;99969.13;10168134;29;20058;-76
2023/04/28 08:41:18;;;;;;;17.55;12.10;;;;;;;11.90;53.93;99979.88;10176396;29;21201;-77
2023/04/28 08:46:25;;;;;;;20.63;11.65;;;;;;;11.95;53.06;99967.69;10180458;29;20063;-75
2023/04/28 08:51:33;;;;;;;20.20;11.20;;;;;;;12.25;53.16;99960.41;10191548;29;20048;-76
2023/04/28 08:56:36;;;;;;;16.80;10.93;;;;;;;12.15;52.99;99975.78;10199394;28;20050;-76
2023/04/28 09:01:40;;;;;;;15.05;10.98;;;;;;;12.29;52.92;99978.03;10161715;29;20056;-77
2023/04/28 09:06:44;;;;;;;17.05;10.80;;;;;;;12.21;53.23;99980.56;10163509;29;20056;-78
2023/04/28 09:11:55;;;;;;;17.85;10.50;;;;;;;12.54;53.37;99979.22;10169358;29;20126;-78
2023/04/28 09:16:59;;;;;;;14.10;10.25;;;;;;;12.66;53.52;99981.75;10157110;29;20047;-77
2023/04/28 09:22:02;;;;;;;15.60;10.30;;;;;;;12.73;52.79;99982.84;10168707;29;20107;-77
2023/04/28 09:27:27;;;;;;;16.88;10.63;;;;;;;12.57;53.61;99989.72;10170023;29;20059;-78
2023/04/28 09:32:32;;;;;;;16.73;10.95;;;;;;;12.51;54.35;99987.59;10165405;29;20604;-76
2023/04/28 09:37:36;;;;;;;17.88;10.95;;;;;;;12.40;55.19;99974.31;10153785;29;20429;-76
2023/04/28 09:42:40;;;;;;;17.30;11.18;;;;;;;12.45;55.77;99955.88;10156962;29;20052;-77
2023/04/28 09:47:47;;;;;;;16.33;11.07;;;;;;;12.60;56.37;99935.53;10170406;28;20424;-76
2023/04/28 09:52:58;;;;;;;17.30;12.05;;;;;;;12.65;59.62;99932.41;10149705;29;20047;-77
2023/04/28 09:58:06;;;;;;;18.98;12.95;;;;;;;12.29;66.20;99944.88;10170945;29;20063;-77
2023/04/28 10:03:12;;;;;;;24.80;13.60;;;;;;;12.07;73.30;99957.63;10171060;29;20653;-77
2023/04/28 10:08:16;;;;;;;19.40;14.18;;;;;;;12.17;71.00;99960.28;10151957;29;21144;-77
2023/04/28 10:13:20;;;;;;;19.30;13.75;;;;;;;12.47;71.56;99947.63;10178152;29;20044;-75
2023/04/28 10:18:25;;;;;;;19.83;13.43;;;;;;;12.67;70.39;99941.19;10155651;29;20055;-77
2023/04/28 10:23:47;;;;;;;22.30;13.02;;;;;;;12.41;69.16;99945.53;10161690;29;20196;-78
2023/04/28 10:28:51;;;;;;;16.53;11.63;;;;;;;12.28;69.48;99944.00;10166697;29;20051;-78
2023/04/28 10:33:56;;;;;;;19.58;13.52;;;;;;;12.37;70.31;99940.44;10161586;29;20079;-76
2023/04/28 10:39:09;;;;;;;20.23;13.18;;;;;;;12.79;70.88;99928.34;10161028;29;20052;-77
2023/04/28 10:44:42;;;;;;;26.05;13.63;;;;;;;13.32;67.39;99918.66;10167340;29;20055;-77
2023/04/28 10:50:03;;;;;;;;;;;;;;;13.63;64.69;99922.69;10145449;29;20062;-77
2023/04/28 10:55:35;;;;;;;15.52;10.68;;;;;;;13.80;62.74;99922.84;10161987;29;20064;-78
2023/04/28 11:00:39;;;;;;;20.42;12.07;;;;;;;14.05;63.24;99915.75;10182995;29;20047;-78
2023/04/28 11:06:18;;;;;;;16.10;11.57;;;;;;;13.92;62.80;99919.72;10151294;29;20043;-77
2023/04/28 11:11:24;;;;;;;12.50;10.20;;;;;;;13.61;62.36;99913.06;10183929;29;20113;-77
2023/04/28 11:16:27;;;;;;;11.95;9.07;;;;;;;13.63;62.95;99902.94;10176737;29;20051;-77
2023/04/28 11:21:31;;;;;;;11.15;9.38;;;;;;;13.78;62.10;99884.34;10204264;29;20077;-77
2023/04/28 11:26:37;;;;;;;16.30;10.65;;;;;;;14.42;60.37;99883.06;10174497;29;20110;-78
2023/04/28 11:31:40;;;;;;;11.43;9.10;;;;;;;14.58;58.61;99880.44;10172085;29;20053;-77
2023/04/28 11:36:44;;;;;;;13.23;9.48;;;;;;;14.73;59.31;99875.28;10162711;29;20059;-78
2023/04/28 11:41:48;;;;;;;16.63;10.43;;;;;;;14.76;58.30;99880.34;10159968;29;20434;-78
2023/04/28 11:46:54;;;;;;;15.30;9.88;;;;;;;15.32;57.32;99872.53;10171059;29;20043;-78
2023/04/28 11:51:59;;;;;;;13.05;8.75;;;;;;;15.08;56.73;99872.50;10157669;29;20075;-77
2023/04/28 11:57:04;;;;;;;17.85;11.30;;;;;;;15.22;56.87;99855.59;10166102;28;20054;-78
2023/04/28 12:02:07;;;;;;;11.55;10.18;;;;;;;15.47;55.57;99854.66;10159806;29;20047;-77
2023/04/28 12:07:12;;;;;;;19.02;11.68;;;;;;;15.31;56.13;99857.31;10158720;29;20131;-77
2023/04/28 12:12:29;;;;;;;12.50;10.45;;;;;;;15.45;56.76;99866.66;10140702;29;20055;-78
2023/04/28 12:17:51;;;;;;;17.23;11.20;;;;;;;15.44;57.21;99862.25;10145438;29;21173;-78
2023/04/28 12:22:54;;;;;;;15.13;12.05;;;;;;;15.45;56.89;99855.84;10159324;29;20060;-77
2023/04/28 12:28:01;;;;;;;15.55;11.32;;;;;;;15.58;56.18;99839.94;10161010;29;20074;-78
2023/04/28 12:33:04;;;;;;;15.68;12.05;;;;;;;15.90;56.16;99838.19;10139498;29;20047;-78
2023/04/28 12:38:12;;;;;;;14.38;11.43;;;;;;;16.25;54.84;99817.94;10164179;29;20059;-77
2023/04/28 12:43:17;;;;;;;15.35;13.13;;;;;;;16.06;54.63;99830.03;10164297;29;20059;-77
2023/04/28 12:48:20;;;;;;;14.27;11.52;;;;;;;16.24;54.90;99837.09;10150888;29;20054;-76
2023/04/28 12:53:23;;;;;;;15.05;10.40;;;;;;;15.95;55.00;99840.38;10181090;29;20051;-77
2023/04/28 12:58:27;;;;;;;14.02;10.07;;;;;;;15.50;56.11;99837.22;10153373;29;20056;-77
2023/04/28 13:03:30;;;;;;;15.95;11.45;;;;;;;15.47;56.77;99842.97;10186212;28;20127;-77
2023/04/28 13:08:34;;;;;;;12.27;10.98;;;;;;;15.63;55.49;99834.84;10167210;29;20151;-78
2023/04/28 13:13:38;;;;;;;15.98;11.02;;;;;;;16.51;54.50;99825.84;10178131;29;20064;-77
2023/04/28 13:18:41;;;;;;;13.43;10.20;;;;;;;17.16;52.69;99824.63;10171833;28;20083;-77
2023/04/28 13:23:44;;;;;;;15.30;11.48;;;;;;;17.16;53.25;99813.75;10172755;29;20043;-78
2023/04/28 13:28:48;;;;;;;13.40;11.52;;;;;;;16.82;53.27;99825.00;10180106;28;20050;-76
2023/04/28 13:33:51;;;;;;;13.40;11.02;;;;;;;16.89;53.39;99811.53;10156938;29;20043;-77
2023/04/28 13:38:54;;;;;;;16.05;10.98;;;;;;;16.70;53.95;99802.00;10160955;29;20052;-77
2023/04/28 13:43:58;;;;;;;17.77;12.13;;;;;;;16.51;54.96;99798.72;10161084;29;20078;-76
2023/04/28 13:49:01;;;;;;;16.08;11.88;;;;;;;16.52;55.29;99794.97;10175491;29;20057;-76
2023/04/28 13:54:07;;;;;;;15.48;11.88;;;;;;;16.91;54.21;99779.66;10181480;29;20052;-78
2023/04/28 13:59:11;;;;;;;13.98;12.00;;;;;;;16.75;54.89;99781.47;10170459;29;20048;-77
2023/04/28 14:04:13;;;;;;;19.70;11.88;;;;;;;16.24;55.27;99786.47;10169382;29;20184;-77
2023/04/28 14:09:17;;;;;;;14.23;11.77;;;;;;;15.88;56.85;99783.38;10161471;29;20186;-78
2023/04/28 14:14:21;;;;;;;17.60;13.18;;;;;;;15.41;61.71;99778.69;10161643;28;20056;-77
2023/04/28 14:19:25;;;;;;;16.50;13.77;;;;;;;15.12;62.26;99773.78;10157361;29;20106;-76
2023/04/28 14:24:28;;;;;;;17.45;14.00;;;;;;;14.88;62.57;99780.00;10149252;29;20062;-77
2023/04/28 14:29:32;;;;;;;15.07;13.32;;;;;;;14.99;61.81;99777.81;10165314;29;20055;-78
2023/04/28 14:34:35;;;;;;;17.42;14.23;;;;;;;15.07;62.35;99768.03;10134899;29;20051;-77
2023/04/28 14:39:38;;;;;;;19.00;13.68;;;;;;;15.24;63.20;99759.72;10158262;29;20099;-77
2023/04/28 14:44:43;;;;;;;18.35;13.30;;;;;;;15.27;61.53;99766.66;10150073;29;20426;-77
2023/04/28 14:49:47;;;;;;;19.17;13.57;;;;;;;15.08;61.98;99767.84;10170444;29;20077;-77
2023/04/28 14:54:50;;;;;;;17.05;12.50;;;;;;;15.02;62.62;99763.94;10155901;29;20055;-77
2023/04/28 14:59:54;;;;;;;18.35;12.00;;;;;;;14.99;62.97;99760.75;10155859;29;20052;-78
2023/04/28 15:04:57;;;;;;;13.88;10.32;;;;;;;15.19;63.00;99745.88;10156642;29;20062;-77
2023/04/28 15:10:00;;;;;;;11.93;9.48;;;;;;;15.14;62.70;99741.97;11499617;23;20395;-76
2023/04/28 15:15:05;;;;;;;16.83;10.10;;;;;;;15.11;63.50;99739.63;10216669;29;20046;-77
2023/04/28 15:20:08;;;;;;;14.27;11.07;;;;;;;14.74;65.24;99746.38;10197028;29;20096;-78
2023/04/28 15:25:11;;;;;;;13.68;10.82;;;;;;;14.73;65.90;99740.13;10171427;29;20131;-77
2023/04/28 15:30:15;;;;;;;16.45;11.15;;;;;;;14.66;67.41;99741.78;10193274;23;20102;-76
2023/04/28 15:35:18;;;;;;;13.30;11.85;;;;;;;14.36;70.24;99752.16;10205645;29;20044;-74
2023/04/28 15:40:21;;;;;;;15.68;12.23;;;;;;;14.16;71.59;99756.16;10222210;29;20040;-76
2023/04/28 15:45:25;;;;;;;18.33;12.68;;;;;;;14.95;72.40;99735.06;10186732;29;20052;-78
2023/04/28 15:50:29;;;;;;;17.58;12.85;;;;;;;15.18;70.42;99736.06;10192331;29;20067;-76
2023/04/28 15:55:31;;;;;;;16.92;14.75;;;;;;;15.13;70.98;99730.31;10198328;29;20036;-76
2023/04/28 16:00:36;;;;;;;16.65;13.48;;;;;;;15.50;69.94;99738.97;10205813;29;20036;-78
2023/04/28 16:05:39;;;;;;;15.60;13.48;;;;;;;15.32;69.50;99742.66;10158666;29;20184;-77
2023/04/28 16:10:42;;;;;;;15.93;12.50;;;;;;;15.40;70.15;99733.72;10162251;29;20063;-77
2023/04/28 16:15:50;;;;;;;14.95;13.30;;;;;;;15.34;69.95;99739.78;10159625;29;20554;-78
2023/04/28 16:20:52;;;;;;;20.05;14.98;;;;;;;15.15;71.15;99747.22;10160777;29;20055;-77
2023/04/28 16:25:55;;;;;;;26.25;15.93;;;;;;;14.66;72.74;99743.66;10160122;29;20603;-75
2023/04/28 16:31:00;;;;;;;18.23;15.85;;;;;;;14.77;73.13;99741.47;10157094;29;20058;-77
2023/04/28 16:36:02;;;;;;;20.95;15.65;;;;;;;14.75;72.50;99732.66;10156361;29;20044;-77
2023/04/28 16:41:05;;;;;;;21.13;16.23;;;;;;;14.87;72.71;99730.50;10166152;29;20070;-77
2023/04/28 16:46:09;;;;;;;22.00;16.08;;;;;;;14.86;72.84;99731.50;10162575;29;20179;-76
2023/04/28 16:51:12;;;;;;;23.00;17.85;;;;;;;14.78;73.60;99726.09;10173596;29;20103;-76
2023/04/28 16:56:15;;;;;;;22.50;17.38;;;;;;;14.76;73.55;99733.53;10174228;29;20055;-76
2023/04/28 17:01:20;;;;;;;20.80;16.30;;;;;;;14.74;75.24;99730.16;10166118;29;20040;-76
2023/04/28 17:06:23;;;;;;;23.33;16.98;;;;;;;14.76;75.18;99717.31;10175487;29;20051;-76
2023/04/28 17:11:26;;;;;;;24.02;18.13;;;;;;;14.80;74.38;99710.53;10164623;29;20044;-75
2023/04/28 17:16:32;;;;;;;22.70;17.63;;;;;;;14.80;73.73;99707.84;10164718;29;20065;-76
2023/04/28 17:21:35;;;;;;;22.15;15.43;;;;;;;14.50;73.75;99709.31;10162849;29;20064;-76
2023/04/28 17:26:38;;;;;;;23.38;16.85;;;;;;;14.44;74.13;99707.28;10153690;29;20058;-77
2023/04/28 17:31:42;;;;;;;21.23;16.98;;;;;;;14.50;73.87;99725.53;10163918;29;20048;-75
2023/04/28 17:36:45;;;;;;;21.75;16.45;;;;;;;13.38;81.91;99734.63;10156675;29;20081;-76
2023/04/28 17:41:48;;;;;;;18.52;12.63;;;;;;;12.58;87.44;99743.53;10167930;29;20178;-77
2023/04/28 17:46:52;;;;;;;29.88;19.15;;;;;;;12.56;88.94;99761.72;10159054;29;20052;-76
2023/04/28 17:51:55;;;;;;;29.05;21.58;;;;;;;12.90;88.08;99762.88;10164393;29;20044;-75
2023/04/28 17:56:57;;;;;;;20.27;15.05;;;;;;;12.56;88.12;99755.47;10148671;29;20154;-77
2023/04/28 18:02:02;;;;;;;16.27;11.38;;;;;;;12.89;85.30;99755.78;10163586;29;21258;-76
2023/04/28 18:07:06;;;;;;;17.40;13.40;;;;;;;12.74;85.78;99758.19;10165270;29;20052;-77
2023/04/28 18:12:09;;;;;;;13.27;10.48;;;;;;;12.87;84.53;99765.88;10166587;29;20060;-75
2023/04/28 18:17:13;;;;;;;14.35;10.05;;;;;;;12.82;83.79;99772.56;10168512;29;20058;-76
2023/04/28 18:22:16;;;;;;;13.05;8.38;;;;;;;12.71;83.97;99780.03;10169694;29;20585;-77
2023/04/28 18:27:19;;;;;;;13.95;9.55;;;;;;;12.59;83.83;99788.34;10160829;29;20046;-76
2023/04/28 18:32:23;;;;;;;12.35;9.32;;;;;;;12.43;84.64;99781.94;10150451;29;20043;-77
2023/04/28 18:37:27;;;;;;;12.48;9.02;;;;;;;12.45;84.35;99786.19;10172205;29;20063;-77
2023/04/28 18:42:31;;;;;;;14.05;8.82;;;;;;;12.63;83.27;99791.56;10162047;29;20061;-76
2023/04/28 18:47:35;;;;;;;12.20;8.15;;;;;;;12.30;84.32;99793.91;10165807;29;20275;-75
2023/04/28 18:52:39;;;;;;;10.55;7.65;;;;;;;12.62;83.14;99806.06;10163598;29;20043;-77
2023/04/28 18:57:42;;;;;;;10.70;7.50;;;;;;;12.47;83.87;99791.41;10169204;29;20079;-77
2023/04/28 19:02:46;;;;;;;11.05;8.02;;;;;;;12.49;83.87;99809.09;10173916;29;20195;-77
2023/04/28 19:07:49;;;;;;;11.43;7.07;;;;;;;12.17;84.89;99813.06;10171690;29;20055;-77
2023/04/28 19:12:52;;;;;;;10.25;8.13;;;;;;;12.47;83.68;99813.78;10168505;29;20530;-77
2023/04/28 19:17:56;;;;;;;11.85;7.28;;;;;;;12.29;84.28;99823.69;10162462;29;20135;-76
2023/04/28 19:23:00;;;;;;;13.60;8.70;;;;;;;12.32;84.36;99831.47;10157562;29;20062;-76
2023/04/28 19:28:03;;;;;;;11.95;8.32;;;;;;;12.54;82.75;99830.22;10159596;29;20051;-77
2023/04/28 19:33:07;;;;;;;13.60;8.80;;;;;;;12.34;83.16;99837.53;10159137;29;20047;-77
2023/04/28 19:38:10;;;;;;;10.35;7.90;;;;;;;12.34;83.51;99827.63;10157605;29;20130;-78
2023/04/28 19:43:14;;;;;;;13.07;9.18;;;;;;;12.79;81.68;99839.41;10152845;29;20055;-77
2023/04/28 19:48:19;;;;;;;12.32;9.02;;;;;;;12.38;83.54;99837.09;10165439;29;20056;-76
2023/04/28 19:53:22;;;;;;;13.32;9.30;;;;;;;12.50;82.91;99835.03;10162586;29;20048;-78
2023/04/28 19:58:25;;;;;;;11.68;7.88;;;;;;;12.06;85.69;99848.25;10154519;29;20066;-76
2023/04/28 20:03:29;;;;;;;11.05;9.55;;;;;;;12.19;86.03;99849.78;10170038;29;20051;-77
2023/04/28 20:08:32;;;;;;;11.65;7.60;;;;;;;12.00;86.20;99850.69;10163745;29;20044;-77
2023/04/28 20:13:35;;;;;;;12.57;8.20;;;;;;;12.10;87.09;99849.66;10173867;29;20054;-77
2023/04/28 20:18:39;;;;;;;14.07;10.32;;;;;;;11.93;88.39;99845.06;10175926;29;20048;-77
2023/04/28 20:23:42;;;;;;;15.05;11.18;;;;;;;12.22;86.60;99847.63;10187826;29;20058;-77
2023/04/28 20:28:47;;;;;;;14.93;10.70;;;;;;;12.22;85.82;99852.16;10173536;29;20542;-77
2023/04/28 20:33:51;;;;;;;14.68;10.13;;;;;;;12.37;85.13;99854.25;10167444;29;20062;-77
2023/04/28 20:38:54;;;;;;;18.33;13.50;;;;;;;12.05;87.33;99857.31;10183840;29;20052;-76
2023/04/28 20:43:57;;;;;;;16.38;10.80;;;;;;;11.83;89.00;99854.97;10183843;29;21225;-77
2023/04/28 20:49:01;;;;;;;16.63;10.70;;;;;;;11.75;90.59;99857.56;10191427;29;20052;-78
2023/04/28 20:54:04;;;;;;;21.13;14.35;;;;;;;11.88;90.59;99850.88;10174728;29;21314;-76
2023/04/28 20:59:07;;;;;;;18.10;12.30;;;;;;;11.52;91.99;99849.81;10174275;29;20436;-77
2023/04/28 21:04:11;;;;;;;24.77;15.13;;;;;;;11.71;91.76;99854.28;10167775;29;20052;-78
2023/04/28 21:09:14;;;;;;;23.02;15.43;;;;;;;11.40;93.42;99856.31;10169464;29;20043;-76
2023/04/28 21:14:17;;;;;;;21.48;12.82;;;;;;;11.37;93.13;99853.91;10212760;29;20068;-78
2023/04/28 21:19:21;;;;;;;26.85;17.23;;;;;;;11.58;91.57;99851.06;10221454;29;20047;-78
2023/04/28 21:24:24;;;;;;;24.15;13.80;;;;;;;11.45;92.11;99845.97;10239648;29;20048;-79
2023/04/28 21:29:27;;;;;;;25.15;15.63;;;;;;;11.56;91.88;99856.59;10210678;23;20086;-76
2023/04/28 21:34:31;;;;;;;24.17;16.40;;;;;;;11.66;89.86;99867.34;10217365;29;20070;-75
2023/04/28 21:39:35;;;;;;;21.77;13.55;;;;;;;11.65;89.23;99862.94;10207737;29;20079;-75
2023/04/28 21:44:38;;;;;;;22.98;14.60;;;;;;;11.18;90.34;99865.50;10174425;29;20124;-75
2023/04/28 21:49:42;;;;;;;24.38;16.33;;;;;;;11.57;87.99;99866.34;10172302;29;20056;-77
2023/04/28 21:54:45;;;;;;;23.35;15.40;;;;;;;11.61;88.29;99861.53;10176105;29;20389;-75
2023/04/28 21:59:48;;;;;;;22.83;15.00;;;;;;;11.62;86.92;99864.06;10171196;29;20053;-74
2023/04/28 22:04:54;;;;;;;19.08;14.40;;;;;;;11.61;85.46;99862.38;10174775;29;20095;-75
2023/04/28 22:09:57;;;;;;;17.00;9.77;;;;;;;11.53;84.96;99880.22;10171984;29;20123;-75
2023/04/28 22:15:00;;;;;;;16.92;12.75;;;;;;;11.59;84.06;99864.34;10175519;29;20064;-75
2023/04/28 22:20:05;;;;;;;17.70;13.20;;;;;;;11.75;83.58;99873.69;10173216;29;20051;-75
2023/04/28 22:25:09;;;;;;;17.30;11.80;;;;;;;11.67;82.95;99871.72;10157030;29;20048;-76
2023/04/28 22:30:12;;;;;;;19.27;12.65;;;;;;;11.93;81.76;99888.13;10166313;29;20384;-77
2023/04/28 22:35:16;;;;;;;17.20;12.27;;;;;;;11.52;83.13;99889.28;10174226;29;20474;-74
2023/04/28 22:40:20;;;;;;;17.52;12.13;;;;;;;11.70;81.29;99887.56;10174401;29;20083;-75
2023/04/28 22:45:23;;;;;;;16.65;11.73;;;;;;;11.48;80.19;99897.63;10174229;29;20073;-75
2023/04/28 22:50:27;;;;;;;14.57;11.20;;;;;;;11.35;80.61;99894.38;10173038;29;20091;-76
2023/04/28 22:55:30;;;;;;;17.90;11.32;;;;;;;11.31;79.64;99902.88;10172851;29;20044;-75
2023/04/28 23:00:34;;;;;;;16.95;13.55;;;;;;;11.66;78.52;99900.47;10172311;29;20040;-74
2023/04/28 23:05:39;;;;;;;19.08;13.77;;;;;;;11.56;78.96;99902.31;10169391;29;20504;-74
2023/04/28 23:10:41;;;;;;;20.63;14.55;;;;;;;11.35;79.43;99906.97;10172081;29;20040;-75